Dragor, Denmark
Current Conditions -  °F | °C
As of 6:20 AM on Saturday 25 Oct 2014 (Local Time) from EKCH Reporting Station
Light Rain Light Rain  
Wind Chill: 50°   Ceiling: 1000
Heat Index: 50°   Visibility: 4mi
Dew Point: 48°   Wind: 20mph
Humidity: 94%   Direction: 180°S
Pressure: 30"   Gusts: NA
Location:  55.59°N, 12.67°E
Report Text: EKCH 250420Z 18017KT 7000 -RA BKN010 10/09 Q1016 TEMPO4000 BKN008
Loading
Personal Weather Stations






























Interactive Weather Map New forecast layout! Learn more

10-Day Weather Forecast

Advertisements
Track Severe Weather on mobile